createdAt,value
2017-04-14T00:00:46.102Z,0
2017-04-14T00:01:55.057Z,0
2017-04-14T00:03:04.310Z,0
2017-04-14T00:04:13.264Z,0
2017-04-14T00:05:22.537Z,0
2017-04-14T00:06:31.578Z,0
2017-04-14T00:07:40.535Z,0
2017-04-14T00:08:49.750Z,0
2017-04-14T00:09:58.706Z,0
2017-04-14T00:11:07.751Z,0
2017-04-14T00:12:16.710Z,0
2017-04-14T00:13:25.664Z,0
2017-04-14T00:14:34.868Z,0
2017-04-14T00:15:43.822Z,0
2017-04-14T00:16:52.778Z,0
2017-04-14T00:18:01.735Z,0
2017-04-14T00:19:10.694Z,0
2017-04-14T00:20:19.895Z,0
2017-04-14T00:21:28.854Z,0
2017-04-14T00:22:37.811Z,0
2017-04-14T00:23:46.777Z,0
2017-04-14T00:24:55.735Z,0
2017-04-14T00:26:05.024Z,0
2017-04-14T00:27:13.973Z,0
2017-04-14T00:28:22.924Z,0
2017-04-14T00:29:31.881Z,0
2017-04-14T00:30:40.834Z,0
2017-04-14T00:31:50.034Z,0
2017-04-14T00:32:59.316Z,0
2017-04-14T00:34:08.277Z,0
2017-04-14T00:35:17.313Z,0
2017-04-14T00:36:26.264Z,0
2017-04-14T00:37:35.480Z,0
2017-04-14T00:38:44.437Z,0
2017-04-14T00:39:53.386Z,0
2017-04-14T00:41:02.382Z,0
2017-04-14T00:42:11.335Z,0
2017-04-14T00:43:20.592Z,0
2017-04-14T00:44:29.551Z,0
2017-04-14T00:45:38.501Z,0
2017-04-14T00:46:47.456Z,0
2017-04-14T00:47:56.514Z,0
2017-04-14T00:49:05.726Z,0
2017-04-14T00:50:14.677Z,0
2017-04-14T00:51:23.644Z,0
2017-04-14T00:52:32.599Z,0
2017-04-14T00:53:41.559Z,0
2017-04-14T00:54:50.815Z,0
2017-04-14T00:55:59.765Z,0
2017-04-14T00:57:08.720Z,0
2017-04-14T00:58:17.672Z,0
2017-04-14T00:59:26.620Z,0
2017-04-14T01:00:35.905Z,0
2017-04-14T01:01:44.859Z,0
2017-04-14T01:02:54.136Z,0
2017-04-14T01:04:03.090Z,0
2017-04-14T01:05:12.039Z,0
2017-04-14T01:06:21.294Z,0
2017-04-14T01:07:30.254Z,0
2017-04-14T01:08:39.218Z,0
2017-04-14T01:09:48.492Z,0
2017-04-14T01:10:57.442Z,0
2017-04-14T01:12:06.639Z,0
2017-04-14T01:13:15.587Z,0
2017-04-14T01:14:24.548Z,0
2017-04-14T01:15:33.510Z,0
2017-04-14T01:16:42.461Z,0
2017-04-14T01:17:51.667Z,0
2017-04-14T01:19:00.627Z,0
2017-04-14T01:20:09.574Z,0
2017-04-14T01:21:18.864Z,0
2017-04-14T01:22:27.827Z,0
2017-04-14T01:23:37.028Z,0
2017-04-14T01:24:45.980Z,0
2017-04-14T01:25:54.931Z,0
2017-04-14T01:27:03.890Z,0
2017-04-14T01:28:13.170Z,0
2017-04-14T01:29:22.375Z,0
2017-04-14T01:30:31.335Z,0
2017-04-14T01:31:40.279Z,0
2017-04-14T01:32:49.233Z,0
2017-04-14T01:33:58.522Z,0
2017-04-14T01:35:07.780Z,0
2017-04-14T01:36:16.827Z,0
2017-04-14T01:37:25.779Z,0
2017-04-14T01:38:34.728Z,0
2017-04-14T01:39:44.002Z,0
2017-04-14T01:40:53.207Z,0
2017-04-14T01:42:02.157Z,0
2017-04-14T01:43:11.114Z,0
2017-04-14T01:44:20.073Z,0
2017-04-14T01:45:29.023Z,0
2017-04-14T01:46:38.603Z,0
2017-04-14T01:47:47.558Z,0
2017-04-14T01:48:56.515Z,0
2017-04-14T01:50:05.475Z,0
2017-04-14T01:51:14.435Z,0
2017-04-14T01:52:23.689Z,0
2017-04-14T01:53:32.651Z,0
2017-04-14T01:54:41.615Z,0
2017-04-14T01:55:50.572Z,0
2017-04-14T01:56:59.523Z,0
2017-04-14T01:58:08.730Z,0
2017-04-14T01:59:17.684Z,0
2017-04-14T02:00:26.643Z,0
2017-04-14T02:01:35.602Z,0
2017-04-14T02:02:44.558Z,0
2017-04-14T02:03:53.764Z,0
2017-04-14T02:05:02.717Z,0
2017-04-14T02:06:11.673Z,0
2017-04-14T02:07:20.943Z,0
2017-04-14T02:08:29.898Z,0
2017-04-14T02:09:39.195Z,0
2017-04-14T02:10:48.148Z,0
2017-04-14T02:11:57.426Z,0
2017-04-14T02:13:06.382Z,0
2017-04-14T02:14:15.338Z,0
2017-04-14T02:15:24.558Z,0
2017-04-14T02:16:33.598Z,0
2017-04-14T02:17:42.892Z,0
2017-04-14T02:18:51.941Z,0
2017-04-14T02:20:00.894Z,0
2017-04-14T02:21:10.141Z,0
2017-04-14T02:22:19.098Z,0
2017-04-14T02:23:28.053Z,0
2017-04-14T02:24:37.011Z,0
2017-04-14T02:25:45.965Z,0
2017-04-14T02:26:55.166Z,0
2017-04-14T02:28:04.116Z,0
2017-04-14T02:29:13.064Z,0
2017-04-14T02:30:22.020Z,0
2017-04-14T02:31:30.971Z,0
2017-04-14T02:32:40.171Z,0
2017-04-14T02:33:49.121Z,0
2017-04-14T02:34:58.074Z,0
2017-04-14T02:36:07.023Z,0
2017-04-14T02:37:15.972Z,0
2017-04-14T02:38:25.171Z,0
2017-04-14T02:39:34.135Z,0
2017-04-14T02:40:43.092Z,0
2017-04-14T02:41:52.047Z,0
2017-04-14T02:43:01.079Z,0
2017-04-14T02:44:10.287Z,0
2017-04-14T02:45:19.240Z,0
2017-04-14T02:46:28.190Z,0
2017-04-14T02:47:37.140Z,0
2017-04-14T02:48:46.096Z,0
2017-04-14T02:49:55.297Z,0
2017-04-14T02:51:04.260Z,0
2017-04-14T02:52:13.204Z,0
2017-04-14T02:53:22.158Z,0
2017-04-14T02:54:31.203Z,0
2017-04-14T02:55:40.456Z,0
2017-04-14T02:56:49.411Z,0
2017-04-14T02:57:58.369Z,0
2017-04-14T02:59:07.414Z,0
2017-04-14T03:00:16.369Z,0
2017-04-14T03:01:25.619Z,0
2017-04-14T03:02:34.615Z,0
2017-04-14T03:03:43.573Z,0
2017-04-14T03:04:52.527Z,0
2017-04-14T03:06:01.482Z,0
2017-04-14T03:07:10.682Z,0
2017-04-14T03:08:19.631Z,0
2017-04-14T03:09:28.582Z,0
2017-04-14T03:10:37.534Z,0
2017-04-14T03:11:46.490Z,0
2017-04-14T03:12:55.694Z,0
2017-04-14T03:14:04.740Z,0
2017-04-14T03:15:13.699Z,0
2017-04-14T03:16:22.650Z,0
2017-04-14T03:17:31.597Z,0
2017-04-14T03:18:40.851Z,0
2017-04-14T03:19:49.798Z,0
2017-04-14T03:20:58.787Z,0
2017-04-14T03:22:07.744Z,0
2017-04-14T03:23:16.692Z,0
2017-04-14T03:24:26.231Z,0
2017-04-14T03:25:35.506Z,0
2017-04-14T03:26:44.460Z,0
2017-04-14T03:27:53.410Z,0
2017-04-14T03:29:02.364Z,0
2017-04-14T03:30:11.563Z,0
2017-04-14T03:31:20.513Z,0
2017-04-14T03:32:29.462Z,0
2017-04-14T03:33:38.760Z,0
2017-04-14T03:34:47.717Z,0
2017-04-14T03:35:56.927Z,0
2017-04-14T03:37:05.884Z,0
2017-04-14T03:38:14.832Z,0
2017-04-14T03:39:23.795Z,0
2017-04-14T03:40:32.751Z,0
2017-04-14T03:41:42.327Z,0
2017-04-14T03:42:51.279Z,0
2017-04-14T03:44:00.230Z,0
2017-04-14T03:45:09.268Z,0
2017-04-14T03:46:18.219Z,0
2017-04-14T03:47:27.464Z,0
2017-04-14T03:48:36.416Z,0
2017-04-14T03:49:45.369Z,0
2017-04-14T03:50:54.326Z,0
2017-04-14T03:52:03.280Z,0
2017-04-14T03:53:12.811Z,0
2017-04-14T03:54:21.766Z,0
2017-04-14T03:55:30.724Z,0
2017-04-14T03:56:39.680Z,0
2017-04-14T03:57:48.634Z,0
2017-04-14T03:58:57.845Z,0
2017-04-14T04:00:06.802Z,0
2017-04-14T04:01:15.747Z,0
2017-04-14T04:02:24.712Z,0
2017-04-14T04:03:33.668Z,0
2017-04-14T04:04:42.875Z,0
2017-04-14T04:05:51.824Z,0
2017-04-14T04:07:00.779Z,0
2017-04-14T04:08:09.729Z,0
2017-04-14T04:09:18.687Z,0
2017-04-14T04:10:27.887Z,0
2017-04-14T04:11:36.838Z,0
2017-04-14T04:12:45.793Z,0
2017-04-14T04:13:54.797Z,0
2017-04-14T04:15:03.756Z,0
2017-04-14T04:16:12.966Z,5
2017-04-14T04:17:21.914Z,5
2017-04-14T04:18:30.867Z,5
2017-04-14T04:19:39.816Z,5
2017-04-14T04:20:48.772Z,5
2017-04-14T04:21:58.102Z,5
2017-04-14T04:23:07.055Z,5
2017-04-14T04:24:16.011Z,5
2017-04-14T04:25:24.962Z,5
2017-04-14T04:26:33.917Z,5
2017-04-14T04:27:43.126Z,5
2017-04-14T04:28:52.081Z,5
2017-04-14T04:30:01.044Z,5
2017-04-14T04:31:09.996Z,5
2017-04-14T04:32:18.951Z,10
2017-04-14T04:33:28.161Z,10
2017-04-14T04:34:37.429Z,10
2017-04-14T04:35:46.385Z,10
2017-04-14T04:36:55.338Z,10
2017-04-14T04:38:04.657Z,10
2017-04-14T04:39:13.855Z,10
2017-04-14T04:40:23.218Z,10
2017-04-14T04:41:32.166Z,10
2017-04-14T04:42:41.114Z,10
2017-04-14T04:43:50.064Z,15
2017-04-14T04:44:59.273Z,15
2017-04-14T04:46:08.563Z,20
2017-04-14T04:47:17.514Z,15
2017-04-14T04:48:26.468Z,15
2017-04-14T04:49:35.420Z,10
2017-04-14T04:50:44.620Z,10
2017-04-14T04:51:53.575Z,10
2017-04-14T04:53:02.620Z,10
2017-04-14T04:54:11.581Z,15
2017-04-14T04:55:20.575Z,20
2017-04-14T04:56:29.777Z,20
2017-04-14T04:57:38.739Z,15
2017-04-14T04:58:47.691Z,20
2017-04-14T04:59:56.648Z,25
2017-04-14T05:01:05.597Z,25
2017-04-14T05:02:15.139Z,20
2017-04-14T05:03:24.089Z,20
2017-04-14T05:04:33.041Z,30
2017-04-14T05:05:41.991Z,25
2017-04-14T05:06:50.942Z,25
2017-04-14T05:08:00.145Z,40
2017-04-14T05:09:09.092Z,35
2017-04-14T05:10:18.130Z,35
2017-04-14T05:11:27.089Z,25
2017-04-14T05:12:36.037Z,25
2017-04-14T05:13:45.244Z,30
2017-04-14T05:14:54.209Z,30
2017-04-14T05:16:03.166Z,40
2017-04-14T05:17:12.120Z,45
2017-04-14T05:18:21.076Z,45
2017-04-14T05:19:30.279Z,45
2017-04-14T05:20:39.322Z,55
2017-04-14T05:21:48.276Z,60
2017-04-14T05:22:57.240Z,60
2017-04-14T05:24:06.201Z,50
2017-04-14T05:25:15.408Z,50
2017-04-14T05:26:24.359Z,70
2017-04-14T05:27:33.309Z,85
2017-04-14T05:28:42.260Z,75
2017-04-14T05:29:51.211Z,60
2017-04-14T05:31:00.414Z,75
2017-04-14T05:32:09.368Z,75
2017-04-14T05:33:18.318Z,75
2017-04-14T05:34:27.270Z,60
2017-04-14T05:35:36.309Z,85
2017-04-14T05:36:45.518Z,85
2017-04-14T05:37:54.469Z,70
2017-04-14T05:39:03.419Z,80
2017-04-14T05:40:12.381Z,55
2017-04-14T05:41:21.334Z,65
2017-04-14T05:42:30.673Z,65
2017-04-14T05:43:39.629Z,65
2017-04-14T05:44:48.585Z,85
2017-04-14T05:45:57.534Z,65
2017-04-14T05:47:06.491Z,50
2017-04-14T05:48:16.020Z,55
2017-04-14T05:49:24.977Z,85
2017-04-14T05:50:33.927Z,75
2017-04-14T05:51:42.888Z,55
2017-04-14T05:52:51.846Z,65
2017-04-14T05:54:01.053Z,75
2017-04-14T05:55:10.001Z,75
2017-04-14T05:56:19.271Z,60
2017-04-14T05:57:28.224Z,60
2017-04-14T05:58:37.177Z,70
2017-04-14T05:59:46.437Z,80
2017-04-14T06:00:55.389Z,70
2017-04-14T06:02:04.340Z,95
2017-04-14T06:03:13.295Z,60
2017-04-14T06:04:22.246Z,80
2017-04-14T06:05:31.455Z,75
2017-04-14T06:06:40.499Z,110
2017-04-14T06:07:49.458Z,80
2017-04-14T06:08:58.412Z,100
2017-04-14T06:10:07.464Z,115
2017-04-14T06:11:16.665Z,95
2017-04-14T06:12:25.612Z,80
2017-04-14T06:13:34.656Z,95
2017-04-14T06:14:43.608Z,90
2017-04-14T06:15:52.652Z,80
2017-04-14T06:17:01.859Z,90
2017-04-14T06:18:10.907Z,75
2017-04-14T06:19:19.864Z,130
2017-04-14T06:20:28.817Z,85
2017-04-14T06:21:37.767Z,90
2017-04-14T06:22:46.975Z,80
2017-04-14T06:23:55.933Z,85
2017-04-14T06:25:04.897Z,115
2017-04-14T06:26:13.855Z,70
2017-04-14T06:27:22.805Z,80
2017-04-14T06:28:32.018Z,90
2017-04-14T06:29:40.970Z,105
2017-04-14T06:30:49.918Z,105
2017-04-14T06:31:58.870Z,120
2017-04-14T06:33:07.823Z,75
2017-04-14T06:34:17.026Z,80
2017-04-14T06:35:25.977Z,105
2017-04-14T06:36:35.251Z,95
2017-04-14T06:37:44.293Z,125
2017-04-14T06:38:53.250Z,95
2017-04-14T06:40:02.541Z,125
2017-04-14T06:41:11.493Z,135
2017-04-14T06:42:20.458Z,100
2017-04-14T06:43:29.744Z,135
2017-04-14T06:44:38.700Z,135
2017-04-14T06:45:47.904Z,145
2017-04-14T06:46:56.857Z,110
2017-04-14T06:48:05.898Z,175
2017-04-14T06:49:14.864Z,120
2017-04-14T06:50:23.821Z,95
2017-04-14T06:51:33.024Z,100
2017-04-14T06:52:41.986Z,140
2017-04-14T06:53:50.937Z,120
2017-04-14T06:54:59.889Z,165
2017-04-14T06:56:08.842Z,100
2017-04-14T06:57:18.045Z,95
2017-04-14T06:58:26.999Z,140
2017-04-14T06:59:35.951Z,125
2017-04-14T07:00:44.986Z,110
2017-04-14T07:01:53.935Z,130
2017-04-14T07:03:03.153Z,150
2017-04-14T07:04:12.107Z,155
2017-04-14T07:05:21.072Z,170
2017-04-14T07:06:30.029Z,205
2017-04-14T07:07:38.990Z,185
2017-04-14T07:08:48.201Z,180
2017-04-14T07:09:57.154Z,185
2017-04-14T07:11:06.116Z,195
2017-04-14T07:12:15.392Z,185
2017-04-14T07:13:24.440Z,165
2017-04-14T07:14:33.646Z,180
2017-04-14T07:15:42.774Z,190
2017-04-14T07:16:51.736Z,200
2017-04-14T07:18:00.697Z,195
2017-04-14T07:19:09.647Z,200
2017-04-14T07:20:18.855Z,195
2017-04-14T07:21:27.806Z,170
2017-04-14T07:22:36.775Z,185
2017-04-14T07:23:45.818Z,200
2017-04-14T07:24:54.774Z,200
2017-04-14T07:26:03.977Z,190
2017-04-14T07:27:12.945Z,175
2017-04-14T07:28:21.907Z,175
2017-04-14T07:29:31.186Z,175
2017-04-14T07:30:40.143Z,180
2017-04-14T07:31:49.354Z,180
2017-04-14T07:32:58.317Z,195
2017-04-14T07:34:07.271Z,150
2017-04-14T07:35:16.547Z,185
2017-04-14T07:36:25.585Z,175
2017-04-14T07:37:34.890Z,180
2017-04-14T07:38:43.845Z,150
2017-04-14T07:39:52.800Z,175
2017-04-14T07:41:01.756Z,230
2017-04-14T07:42:11.056Z,175
2017-04-14T07:43:20.264Z,160
2017-04-14T07:44:29.217Z,170
2017-04-14T07:45:38.491Z,190
2017-04-14T07:46:47.537Z,150
2017-04-14T07:47:56.499Z,155
2017-04-14T07:49:05.706Z,155
2017-04-14T07:50:14.704Z,160
2017-04-14T07:51:23.663Z,160
2017-04-14T07:52:32.621Z,175
2017-04-14T07:53:41.579Z,170
2017-04-14T07:54:50.780Z,175
2017-04-14T07:55:59.822Z,200
2017-04-14T07:57:08.777Z,220
2017-04-14T07:58:17.732Z,175
2017-04-14T07:59:26.693Z,215
2017-04-14T08:00:35.903Z,190
2017-04-14T08:01:44.860Z,190
2017-04-14T08:02:53.904Z,220
2017-04-14T08:04:02.860Z,195
2017-04-14T08:05:11.901Z,105
2017-04-14T08:06:21.110Z,180
2017-04-14T08:07:30.068Z,170
2017-04-14T08:08:39.023Z,190
2017-04-14T08:09:47.971Z,175
2017-04-14T08:10:56.931Z,165
2017-04-14T08:12:06.233Z,185
2017-04-14T08:13:15.204Z,190
2017-04-14T08:14:24.163Z,190
2017-04-14T08:15:33.111Z,200
2017-04-14T08:16:42.068Z,205
2017-04-14T08:17:51.281Z,220
2017-04-14T08:19:00.244Z,215
2017-04-14T08:20:09.196Z,195
2017-04-14T08:21:18.153Z,190
2017-04-14T08:22:27.107Z,160
2017-04-14T08:23:36.315Z,195
2017-04-14T08:24:45.271Z,165
2017-04-14T08:25:54.220Z,175
2017-04-14T08:27:03.182Z,225
2017-04-14T08:28:12.223Z,240
2017-04-14T08:29:21.524Z,270
2017-04-14T08:30:30.656Z,220
2017-04-14T08:31:39.608Z,185
2017-04-14T08:32:48.658Z,195
2017-04-14T08:33:57.618Z,130
2017-04-14T08:35:07.155Z,160
2017-04-14T08:36:16.149Z,190
2017-04-14T08:37:25.106Z,165
2017-04-14T08:38:34.127Z,185
2017-04-14T08:39:43.135Z,165
2017-04-14T08:40:52.342Z,145
2017-04-14T08:42:01.302Z,160
2017-04-14T08:43:10.263Z,225
2017-04-14T08:44:19.211Z,170
2017-04-14T08:45:28.165Z,165
2017-04-14T08:46:37.372Z,235
2017-04-14T08:47:46.331Z,170
2017-04-14T08:48:55.292Z,220
2017-04-14T08:50:04.576Z,240
2017-04-14T08:51:13.626Z,225
2017-04-14T08:52:22.831Z,250
2017-04-14T08:53:31.793Z,270
2017-04-14T08:54:40.747Z,300
2017-04-14T08:55:49.706Z,290
2017-04-14T08:56:58.658Z,275
2017-04-14T08:58:07.868Z,205
2017-04-14T08:59:16.838Z,210
2017-04-14T09:00:25.796Z,215
2017-04-14T09:01:34.754Z,240
2017-04-14T09:02:43.712Z,260
2017-04-14T09:03:52.922Z,280
2017-04-14T09:05:01.880Z,240
2017-04-14T09:06:11.175Z,235
2017-04-14T09:07:20.139Z,170
2017-04-14T09:08:29.183Z,120
2017-04-14T09:09:38.389Z,110
2017-04-14T09:10:47.347Z,150
2017-04-14T09:11:56.302Z,160
2017-04-14T09:13:05.258Z,155
2017-04-14T09:14:14.389Z,150
2017-04-14T09:15:23.628Z,165
2017-04-14T09:16:32.586Z,210
2017-04-14T09:17:41.543Z,185
2017-04-14T09:18:50.507Z,145
2017-04-14T09:19:59.472Z,130
2017-04-14T09:21:08.676Z,180
2017-04-14T09:22:17.717Z,185
2017-04-14T09:23:26.677Z,155
2017-04-14T09:24:35.642Z,135
2017-04-14T09:25:44.935Z,165
2017-04-14T09:26:54.243Z,180
2017-04-14T09:28:03.281Z,175
2017-04-14T09:29:12.240Z,195
2017-04-14T09:30:21.201Z,160
2017-04-14T09:31:30.155Z,120
2017-04-14T09:32:39.364Z,130
2017-04-14T09:33:48.335Z,130
2017-04-14T09:34:57.299Z,135
2017-04-14T09:36:06.255Z,135
2017-04-14T09:37:15.209Z,145
2017-04-14T09:38:24.418Z,150
2017-04-14T09:39:33.372Z,155
2017-04-14T09:40:42.324Z,150
2017-04-14T09:41:51.370Z,150
2017-04-14T09:43:00.327Z,150
2017-04-14T09:44:09.532Z,140
2017-04-14T09:45:18.496Z,145
2017-04-14T09:46:27.454Z,150
2017-04-14T09:47:36.417Z,160
2017-04-14T09:48:45.377Z,155
2017-04-14T09:49:54.585Z,155
2017-04-14T09:51:03.539Z,155
2017-04-14T09:52:12.497Z,170
2017-04-14T09:53:21.459Z,180
2017-04-14T09:54:30.418Z,180
2017-04-14T09:55:39.620Z,185
2017-04-14T09:56:48.591Z,200
2017-04-14T09:57:57.549Z,225
2017-04-14T09:59:06.597Z,245
2017-04-14T10:00:15.554Z,255
2017-04-14T10:01:24.814Z,255
2017-04-14T10:02:33.858Z,250
2017-04-14T10:03:42.818Z,230
2017-04-14T10:04:51.774Z,235
2017-04-14T10:06:00.726Z,220
2017-04-14T10:07:09.950Z,240
2017-04-14T10:08:18.914Z,235
2017-04-14T10:09:27.872Z,230
2017-04-14T10:10:36.829Z,240
2017-04-14T10:11:45.788Z,260
2017-04-14T10:12:54.993Z,280
2017-04-14T10:14:03.963Z,260
2017-04-14T10:15:12.933Z,220
2017-04-14T10:16:21.975Z,150
2017-04-14T10:17:30.944Z,170
2017-04-14T10:18:40.484Z,155
2017-04-14T10:19:49.441Z,160
2017-04-14T10:20:58.718Z,160
2017-04-14T10:22:07.682Z,165
2017-04-14T10:23:16.640Z,200
2017-04-14T10:24:25.851Z,250
2017-04-14T10:25:34.809Z,260
2017-04-14T10:26:43.764Z,265
2017-04-14T10:27:52.723Z,270
2017-04-14T10:29:01.692Z,270
2017-04-14T10:30:10.899Z,270
2017-04-14T10:31:19.859Z,270
2017-04-14T10:32:28.905Z,280
2017-04-14T10:33:38.184Z,300
2017-04-14T10:34:47.279Z,260
2017-04-14T10:35:56.493Z,250
2017-04-14T10:37:05.446Z,240
2017-04-14T10:38:14.493Z,245
2017-04-14T10:39:23.459Z,245
2017-04-14T10:40:32.747Z,270
2017-04-14T10:41:42.046Z,275
2017-04-14T10:42:51.013Z,250
2017-04-14T10:43:59.969Z,195
2017-04-14T10:45:08.931Z,180
2017-04-14T10:46:18.213Z,185
2017-04-14T10:47:27.430Z,205
2017-04-14T10:48:36.390Z,225
2017-04-14T10:49:45.346Z,225
2017-04-14T10:50:54.310Z,230
2017-04-14T10:52:03.271Z,240
2017-04-14T10:53:12.481Z,250
2017-04-14T10:54:21.444Z,260
2017-04-14T10:55:30.401Z,255
2017-04-14T10:56:39.356Z,260
2017-04-14T10:57:48.321Z,250
2017-04-14T10:58:57.538Z,250
2017-04-14T11:00:06.500Z,245
2017-04-14T11:01:15.459Z,225
2017-04-14T11:02:24.460Z,195
2017-04-14T11:03:33.422Z,180
2017-04-14T11:04:42.633Z,200
2017-04-14T11:05:51.590Z,210
2017-04-14T11:07:00.549Z,190
2017-04-14T11:08:09.602Z,215
2017-04-14T11:09:18.567Z,220
2017-04-14T11:10:27.777Z,215
2017-04-14T11:11:36.736Z,210
2017-04-14T11:12:45.703Z,220
2017-04-14T11:13:54.668Z,215
2017-04-14T11:15:03.636Z,210
2017-04-14T11:16:12.846Z,215
2017-04-14T11:17:21.894Z,225
2017-04-14T11:18:30.940Z,225
2017-04-14T11:19:39.982Z,225
2017-04-14T11:20:48.944Z,225
2017-04-14T11:21:58.153Z,215
2017-04-14T11:23:07.113Z,205
2017-04-14T11:24:16.169Z,225
2017-04-14T11:25:25.132Z,205
2017-04-14T11:26:34.093Z,180
2017-04-14T11:27:43.390Z,195
2017-04-14T11:28:52.354Z,220
2017-04-14T11:30:01.634Z,220
2017-04-14T11:31:10.600Z,230
2017-04-14T11:32:19.554Z,230
2017-04-14T11:33:28.774Z,230
2017-04-14T11:34:37.730Z,220
2017-04-14T11:35:46.686Z,210
2017-04-14T11:36:55.642Z,215
2017-04-14T11:38:04.597Z,220
2017-04-14T11:39:13.894Z,240
2017-04-14T11:40:22.855Z,240
2017-04-14T11:41:31.812Z,240
2017-04-14T11:42:41.097Z,255
2017-04-14T11:43:50.069Z,250
2017-04-14T11:45:02.983Z,225
2017-04-14T11:46:12.388Z,220
2017-04-14T11:47:21.356Z,225
2017-04-14T11:48:30.321Z,230
2017-04-14T11:49:39.369Z,225
2017-04-14T11:50:48.661Z,220
2017-04-14T11:51:57.619Z,200
2017-04-14T11:53:07.298Z,235
2017-04-14T11:54:16.272Z,230
2017-04-14T11:55:25.230Z,215
2017-04-14T11:56:34.522Z,200
2017-04-14T11:57:43.487Z,210
2017-04-14T11:58:52.447Z,235
2017-04-14T12:00:01.402Z,225
2017-04-14T12:01:10.371Z,230
2017-04-14T12:02:19.589Z,215
2017-04-14T12:03:28.875Z,225
2017-04-14T12:04:37.843Z,215
2017-04-14T12:05:46.801Z,210
2017-04-14T12:06:55.761Z,195
2017-04-14T12:08:05.313Z,180
2017-04-14T12:09:14.282Z,160
2017-04-14T12:10:23.241Z,130
2017-04-14T12:11:32.203Z,100
2017-04-14T12:12:41.167Z,150
2017-04-14T12:13:50.377Z,180
2017-04-14T12:14:59.342Z,180
2017-04-14T12:16:08.302Z,170
2017-04-14T12:17:17.268Z,140
2017-04-14T12:18:26.237Z,100
2017-04-14T12:19:35.447Z,65
2017-04-14T12:20:44.408Z,45
2017-04-14T12:21:53.378Z,40
2017-04-14T12:23:02.350Z,45
2017-04-14T12:24:11.319Z,45
2017-04-14T12:25:21.278Z,50
2017-04-14T12:26:30.234Z,55
2017-04-14T12:27:39.206Z,65
2017-04-14T12:28:48.171Z,75
2017-04-14T12:29:57.128Z,95
2017-04-14T12:31:06.331Z,150
2017-04-14T12:32:15.291Z,180
2017-04-14T12:33:24.256Z,180
2017-04-14T12:34:33.214Z,175
2017-04-14T12:35:42.180Z,160
2017-04-14T12:36:51.403Z,140
2017-04-14T12:38:00.368Z,125
2017-04-14T12:39:09.326Z,120
2017-04-14T12:40:18.284Z,125
2017-04-14T12:41:27.243Z,155
2017-04-14T12:42:36.452Z,135
2017-04-14T12:43:45.414Z,120
2017-04-14T12:44:54.377Z,105
2017-04-14T12:46:03.341Z,110
2017-04-14T12:47:12.302Z,140
2017-04-14T12:48:21.514Z,155
2017-04-14T12:49:30.805Z,145
2017-04-14T12:50:39.761Z,145
2017-04-14T12:51:48.725Z,130
2017-04-14T12:52:57.685Z,130
2017-04-14T12:54:06.895Z,130
2017-04-14T12:55:15.852Z,135
2017-04-14T12:56:24.810Z,105
2017-04-14T12:57:33.772Z,90
2017-04-14T12:58:42.742Z,85
2017-04-14T12:59:51.956Z,70
2017-04-14T13:01:00.915Z,60
2017-04-14T13:02:09.877Z,55
2017-04-14T13:03:18.840Z,45
2017-04-14T13:04:27.812Z,40
2017-04-14T13:05:37.022Z,40
2017-04-14T13:06:45.986Z,35
2017-04-14T13:07:54.947Z,35
2017-04-14T13:09:04.027Z,35
2017-04-14T13:10:12.997Z,30
2017-04-14T13:11:22.535Z,30
2017-04-14T13:12:31.496Z,30
2017-04-14T13:13:40.461Z,35
2017-04-14T13:14:49.417Z,45
2017-04-14T13:15:58.382Z,55
2017-04-14T13:17:07.587Z,65
2017-04-14T13:18:16.638Z,60
2017-04-14T13:19:25.602Z,45
2017-04-14T13:20:34.568Z,35
2017-04-14T13:21:43.526Z,25
2017-04-14T13:22:52.735Z,25
2017-04-14T13:24:01.700Z,30
2017-04-14T13:25:10.741Z,35
2017-04-14T13:26:19.707Z,45
2017-04-14T13:27:28.665Z,40
2017-04-14T13:28:37.929Z,50
2017-04-14T13:29:47.630Z,65
2017-04-14T13:30:56.585Z,75
2017-04-14T13:32:05.542Z,125
2017-04-14T13:33:14.499Z,150
2017-04-14T13:34:23.708Z,155
2017-04-14T13:35:32.756Z,140
2017-04-14T13:36:42.039Z,115
2017-04-14T13:37:51.133Z,105
2017-04-14T13:39:00.090Z,95
2017-04-14T13:40:09.299Z,95
2017-04-14T13:41:18.344Z,90
2017-04-14T13:42:27.304Z,120
2017-04-14T13:43:36.354Z,90
2017-04-14T13:44:45.407Z,85
2017-04-14T13:45:54.946Z,80
2017-04-14T13:47:03.903Z,140
2017-04-14T13:48:12.862Z,165
2017-04-14T13:49:21.826Z,145
2017-04-14T13:50:30.780Z,170
2017-04-14T13:51:39.996Z,140
2017-04-14T13:52:49.047Z,105
2017-04-14T13:53:58.009Z,85
2017-04-14T13:55:06.977Z,85
2017-04-14T13:56:15.950Z,95
2017-04-14T13:57:25.159Z,100
2017-04-14T13:58:34.207Z,100
2017-04-14T13:59:43.392Z,100
2017-04-14T14:00:52.346Z,90
2017-04-14T14:02:01.387Z,85
2017-04-14T14:03:10.927Z,95
2017-04-14T14:04:19.897Z,95
2017-04-14T14:05:28.856Z,80
2017-04-14T14:06:37.819Z,75
2017-04-14T14:07:46.774Z,85
2017-04-14T14:08:55.986Z,95
2017-04-14T14:10:05.272Z,105
2017-04-14T14:11:14.228Z,105
2017-04-14T14:12:23.273Z,115
2017-04-14T14:13:32.231Z,115
2017-04-14T14:14:41.438Z,155
2017-04-14T14:15:50.393Z,160
2017-04-14T14:16:59.356Z,140
2017-04-14T14:18:08.634Z,105
2017-04-14T14:19:17.609Z,100
2017-04-14T14:20:26.820Z,100
2017-04-14T14:21:35.777Z,100
2017-04-14T14:22:44.744Z,85
2017-04-14T14:23:53.705Z,85
2017-04-14T14:25:02.665Z,95
2017-04-14T14:26:11.875Z,120
2017-04-14T14:27:20.834Z,130
2017-04-14T14:28:29.881Z,145
2017-04-14T14:29:38.838Z,145
2017-04-14T14:30:47.891Z,145
2017-04-14T14:31:57.102Z,120
2017-04-14T14:33:06.070Z,105
2017-04-14T14:34:15.351Z,95
2017-04-14T14:35:24.309Z,95
2017-04-14T14:36:33.350Z,60
2017-04-14T14:37:42.600Z,65
2017-04-14T14:38:51.562Z,80
2017-04-14T14:40:00.519Z,125
2017-04-14T14:41:09.802Z,145
2017-04-14T14:42:18.762Z,145
2017-04-14T14:43:27.982Z,125
2017-04-14T14:44:36.944Z,120
2017-04-14T14:45:45.906Z,120
2017-04-14T14:46:54.867Z,115
2017-04-14T14:48:03.829Z,110
2017-04-14T14:49:13.045Z,115
2017-04-14T14:50:22.009Z,115
2017-04-14T14:51:30.964Z,80
2017-04-14T14:52:39.923Z,70
2017-04-14T14:53:48.888Z,65
2017-04-14T14:54:58.102Z,55
2017-04-14T14:56:07.149Z,60
2017-04-14T14:57:16.108Z,60
2017-04-14T14:58:25.121Z,70
2017-04-14T14:59:34.080Z,75
2017-04-14T15:00:43.293Z,70
2017-04-14T15:01:52.253Z,65
2017-04-14T15:03:01.215Z,65
2017-04-14T15:04:10.173Z,70
2017-04-14T15:05:19.132Z,75
2017-04-14T15:06:28.338Z,80
2017-04-14T15:07:37.295Z,80
2017-04-14T15:08:46.262Z,85
2017-04-14T15:09:55.225Z,90
2017-04-14T15:11:04.183Z,85
2017-04-14T15:12:13.391Z,80
2017-04-14T15:13:22.355Z,75
2017-04-14T15:14:31.325Z,55
2017-04-14T15:15:40.279Z,45
2017-04-14T15:16:49.328Z,45
2017-04-14T15:17:58.534Z,45
2017-04-14T15:19:07.580Z,50
2017-04-14T15:20:16.539Z,55
2017-04-14T15:21:25.499Z,65
2017-04-14T15:22:34.456Z,70
2017-04-14T15:23:43.672Z,70
2017-04-14T15:24:52.633Z,75
2017-04-14T15:26:01.609Z,70
2017-04-14T15:27:10.571Z,65
2017-04-14T15:28:19.540Z,65
2017-04-14T15:29:28.749Z,60
2017-04-14T15:30:37.703Z,60
2017-04-14T15:31:46.661Z,55
2017-04-14T15:32:55.622Z,65
2017-04-14T15:34:04.587Z,70
2017-04-14T15:35:13.796Z,80
2017-04-14T15:36:22.753Z,85
2017-04-14T15:37:31.715Z,85
2017-04-14T15:38:40.677Z,90
2017-04-14T15:39:49.637Z,90
2017-04-14T15:40:58.931Z,85
2017-04-14T15:42:07.903Z,85
2017-04-14T15:43:16.862Z,85
2017-04-14T15:44:25.818Z,85
2017-04-14T15:45:34.778Z,85
2017-04-14T15:46:43.989Z,85
2017-04-14T15:47:53.034Z,85
2017-04-14T15:49:02.001Z,85
2017-04-14T15:50:10.966Z,85
2017-04-14T15:51:19.925Z,85
2017-04-14T15:52:29.143Z,80
2017-04-14T15:53:38.103Z,80
2017-04-14T15:54:47.144Z,80
2017-04-14T15:55:56.103Z,80
2017-04-14T15:57:05.062Z,75
2017-04-14T15:58:14.272Z,70
2017-04-14T15:59:23.246Z,65
2017-04-14T16:00:32.207Z,65
2017-04-14T16:01:41.248Z,60
2017-04-14T16:02:50.206Z,65
2017-04-14T16:03:59.506Z,65
2017-04-14T16:05:08.553Z,65
2017-04-14T16:06:17.515Z,70
2017-04-14T16:07:26.472Z,70
2017-04-14T16:08:35.431Z,70
2017-04-14T16:09:44.641Z,70
2017-04-14T16:10:53.601Z,70
2017-04-14T16:12:02.562Z,65
2017-04-14T16:13:11.619Z,60
2017-04-14T16:14:20.666Z,60
2017-04-14T16:15:29.921Z,65
2017-04-14T16:16:38.888Z,65
2017-04-14T16:17:47.846Z,60
2017-04-14T16:18:56.810Z,50